sensor_id;sensor_type;location;lat;lon;timestamp;temperature;humidity
4701;DHT22;8724;51.272;6.554;2023-12-20T00:01:22;9.40;99.90
4701;DHT22;8724;51.272;6.554;2023-12-20T00:03:51;9.40;99.90
4701;DHT22;8724;51.272;6.554;2023-12-20T00:06:20;9.40;99.90
4701;DHT22;8724;51.272;6.554;2023-12-20T00:08:49;9.30;99.90
4701;DHT22;8724;51.272;6.554;2023-12-20T00:11:17;9.40;99.90
4701;DHT22;8724;51.272;6.554;2023-12-20T00:13:45;9.40;99.90
4701;DHT22;8724;51.272;6.554;2023-12-20T00:16:17;9.50;99.90
4701;DHT22;8724;51.272;6.554;2023-12-20T00:18:46;9.50;99.90
4701;DHT22;8724;51.272;6.554;2023-12-20T00:21:14;9.50;99.90
4701;DHT22;8724;51.272;6.554;2023-12-20T00:23:43;9.40;99.90
4701;DHT22;8724;51.272;6.554;2023-12-20T00:26:11;9.40;99.90
4701;DHT22;8724;51.272;6.554;2023-12-20T00:28:39;9.40;99.90
4701;DHT22;8724;51.272;6.554;2023-12-20T00:31:07;9.40;99.90
4701;DHT22;8724;51.272;6.554;2023-12-20T00:33:36;9.40;99.90
4701;DHT22;8724;51.272;6.554;2023-12-20T00:36:05;9.40;99.90
4701;DHT22;8724;51.272;6.554;2023-12-20T00:38:33;9.40;99.90
4701;DHT22;8724;51.272;6.554;2023-12-20T00:41:02;9.50;99.90
4701;DHT22;8724;51.272;6.554;2023-12-20T00:43:31;9.40;99.90
4701;DHT22;8724;51.272;6.554;2023-12-20T00:45:59;9.40;99.90
4701;DHT22;8724;51.272;6.554;2023-12-20T00:48:27;9.40;99.90
4701;DHT22;8724;51.272;6.554;2023-12-20T00:50:57;9.40;99.90
4701;DHT22;8724;51.272;6.554;2023-12-20T00:53:25;9.30;99.90
4701;DHT22;8724;51.272;6.554;2023-12-20T00:55:53;9.30;99.90
4701;DHT22;8724;51.272;6.554;2023-12-20T00:58:23;9.30;99.90
4701;DHT22;8724;51.272;6.554;2023-12-20T01:00:51;9.30;99.90
4701;DHT22;8724;51.272;6.554;2023-12-20T01:03:19;9.20;99.90
4701;DHT22;8724;51.272;6.554;2023-12-20T01:05:48;9.20;99.90
4701;DHT22;8724;51.272;6.554;2023-12-20T01:08:16;9.10;99.90
4701;DHT22;8724;51.272;6.554;2023-12-20T01:10:44;9.10;99.90
4701;DHT22;8724;51.272;6.554;2023-12-20T01:13:13;9.10;99.90
4701;DHT22;8724;51.272;6.554;2023-12-20T01:15:43;9.00;99.90
4701;DHT22;8724;51.272;6.554;2023-12-20T01:18:11;9.00;99.90
4701;DHT22;8724;51.272;6.554;2023-12-20T01:20:39;9.00;99.90
4701;DHT22;8724;51.272;6.554;2023-12-20T01:23:07;9.00;99.90
4701;DHT22;8724;51.272;6.554;2023-12-20T01:25:35;8.90;99.90
4701;DHT22;8724;51.272;6.554;2023-12-20T01:28:04;8.90;99.90
4701;DHT22;8724;51.272;6.554;2023-12-20T01:30:34;8.90;99.90
4701;DHT22;8724;51.272;6.554;2023-12-20T01:33:04;8.80;99.90
4701;DHT22;8724;51.272;6.554;2023-12-20T01:35:32;8.90;99.90
4701;DHT22;8724;51.272;6.554;2023-12-20T01:38:00;8.90;99.90
4701;DHT22;8724;51.272;6.554;2023-12-20T01:40:28;8.80;99.90
4701;DHT22;8724;51.272;6.554;2023-12-20T01:43:00;8.80;99.90
4701;DHT22;8724;51.272;6.554;2023-12-20T01:45:28;8.80;99.90
4701;DHT22;8724;51.272;6.554;2023-12-20T01:47:57;8.90;99.90
4701;DHT22;8724;51.272;6.554;2023-12-20T01:50:28;8.80;99.90
4701;DHT22;8724;51.272;6.554;2023-12-20T01:52:57;8.90;99.90
4701;DHT22;8724;51.272;6.554;2023-12-20T01:55:29;8.90;99.90
4701;DHT22;8724;51.272;6.554;2023-12-20T01:57:59;9.00;99.90
4701;DHT22;8724;51.272;6.554;2023-12-20T02:00:28;9.00;99.90
4701;DHT22;8724;51.272;6.554;2023-12-20T02:02:58;9.10;99.90
4701;DHT22;8724;51.272;6.554;2023-12-20T02:05:30;9.10;99.90
4701;DHT22;8724;51.272;6.554;2023-12-20T02:07:59;9.10;99.90
4701;DHT22;8724;51.272;6.554;2023-12-20T02:10:27;9.10;99.90
4701;DHT22;8724;51.272;6.554;2023-12-20T02:12:55;9.10;99.90
4701;DHT22;8724;51.272;6.554;2023-12-20T02:15:24;9.20;99.90
4701;DHT22;8724;51.272;6.554;2023-12-20T02:17:52;9.20;99.90
4701;DHT22;8724;51.272;6.554;2023-12-20T02:20:21;9.20;99.90
4701;DHT22;8724;51.272;6.554;2023-12-20T02:22:50;9.30;99.90
4701;DHT22;8724;51.272;6.554;2023-12-20T02:25:18;9.30;99.90
4701;DHT22;8724;51.272;6.554;2023-12-20T02:27:47;9.30;99.90
4701;DHT22;8724;51.272;6.554;2023-12-20T02:30:16;9.30;99.90
4701;DHT22;8724;51.272;6.554;2023-12-20T02:32:44;9.30;99.90
4701;DHT22;8724;51.272;6.554;2023-12-20T02:35:12;9.30;99.90
4701;DHT22;8724;51.272;6.554;2023-12-20T02:37:40;9.30;99.90
4701;DHT22;8724;51.272;6.554;2023-12-20T02:40:10;9.30;99.90
4701;DHT22;8724;51.272;6.554;2023-12-20T02:42:38;9.30;99.90
4701;DHT22;8724;51.272;6.554;2023-12-20T02:45:07;9.30;99.90
4701;DHT22;8724;51.272;6.554;2023-12-20T02:47:35;9.30;99.90
4701;DHT22;8724;51.272;6.554;2023-12-20T02:50:04;9.30;99.90
4701;DHT22;8724;51.272;6.554;2023-12-20T02:52:32;9.30;99.90
4701;DHT22;8724;51.272;6.554;2023-12-20T02:55:00;9.30;99.90
4701;DHT22;8724;51.272;6.554;2023-12-20T02:57:30;9.30;99.90
4701;DHT22;8724;51.272;6.554;2023-12-20T03:00:00;9.30;99.90
4701;DHT22;8724;51.272;6.554;2023-12-20T03:02:28;9.30;99.90
4701;DHT22;8724;51.272;6.554;2023-12-20T03:04:56;9.30;99.90
4701;DHT22;8724;51.272;6.554;2023-12-20T03:07:27;9.30;99.90
4701;DHT22;8724;51.272;6.554;2023-12-20T03:09:55;9.30;99.90
4701;DHT22;8724;51.272;6.554;2023-12-20T03:12:43;9.30;99.90
4701;DHT22;8724;51.272;6.554;2023-12-20T03:15:11;9.30;99.90
4701;DHT22;8724;51.272;6.554;2023-12-20T03:17:39;9.30;99.90
4701;DHT22;8724;51.272;6.554;2023-12-20T03:20:08;9.50;99.90
4701;DHT22;8724;51.272;6.554;2023-12-20T03:22:37;9.30;99.90
4701;DHT22;8724;51.272;6.554;2023-12-20T03:25:05;9.20;99.90
4701;DHT22;8724;51.272;6.554;2023-12-20T03:27:33;9.20;99.90
4701;DHT22;8724;51.272;6.554;2023-12-20T03:30:03;9.20;99.90
4701;DHT22;8724;51.272;6.554;2023-12-20T03:32:32;9.20;99.90
4701;DHT22;8724;51.272;6.554;2023-12-20T03:35:00;9.20;99.90
4701;DHT22;8724;51.272;6.554;2023-12-20T03:37:28;9.20;99.90
4701;DHT22;8724;51.272;6.554;2023-12-20T03:39:56;9.20;99.90
4701;DHT22;8724;51.272;6.554;2023-12-20T03:42:24;9.20;99.90
4701;DHT22;8724;51.272;6.554;2023-12-20T03:44:52;9.20;99.90
4701;DHT22;8724;51.272;6.554;2023-12-20T03:47:22;9.20;99.90
4701;DHT22;8724;51.272;6.554;2023-12-20T03:49:50;9.20;99.90
4701;DHT22;8724;51.272;6.554;2023-12-20T03:52:18;9.20;99.90
4701;DHT22;8724;51.272;6.554;2023-12-20T03:54:46;9.20;99.90
4701;DHT22;8724;51.272;6.554;2023-12-20T03:57:14;9.20;99.90
4701;DHT22;8724;51.272;6.554;2023-12-20T03:59:42;9.20;99.90
4701;DHT22;8724;51.272;6.554;2023-12-20T04:02:11;9.30;99.90
4701;DHT22;8724;51.272;6.554;2023-12-20T04:04:40;9.20;99.90
4701;DHT22;8724;51.272;6.554;2023-12-20T04:07:09;9.20;99.90
4701;DHT22;8724;51.272;6.554;2023-12-20T04:09:37;9.20;99.90
4701;DHT22;8724;51.272;6.554;2023-12-20T04:12:06;9.10;99.90
4701;DHT22;8724;51.272;6.554;2023-12-20T04:14:34;9.20;99.90
4701;DHT22;8724;51.272;6.554;2023-12-20T04:17:02;9.20;99.90
4701;DHT22;8724;51.272;6.554;2023-12-20T04:19:30;9.20;99.90
4701;DHT22;8724;51.272;6.554;2023-12-20T04:22:00;9.20;99.90
4701;DHT22;8724;51.272;6.554;2023-12-20T04:24:28;9.40;99.90
4701;DHT22;8724;51.272;6.554;2023-12-20T04:26:56;9.20;99.90
4701;DHT22;8724;51.272;6.554;2023-12-20T04:29:24;9.10;99.90
4701;DHT22;8724;51.272;6.554;2023-12-20T04:31:52;9.10;99.90
4701;DHT22;8724;51.272;6.554;2023-12-20T04:34:21;9.10;99.90
4701;DHT22;8724;51.272;6.554;2023-12-20T04:36:50;9.10;99.90
4701;DHT22;8724;51.272;6.554;2023-12-20T04:39:19;9.10;99.90
4701;DHT22;8724;51.272;6.554;2023-12-20T04:41:48;8.80;99.90
4701;DHT22;8724;51.272;6.554;2023-12-20T04:44:16;9.00;99.90
4701;DHT22;8724;51.272;6.554;2023-12-20T04:46:44;9.00;99.90
4701;DHT22;8724;51.272;6.554;2023-12-20T04:49:13;9.00;99.90
4701;DHT22;8724;51.272;6.554;2023-12-20T04:51:41;9.00;99.90
4701;DHT22;8724;51.272;6.554;2023-12-20T04:54:09;9.00;99.90
4701;DHT22;8724;51.272;6.554;2023-12-20T04:56:39;9.00;99.90
4701;DHT22;8724;51.272;6.554;2023-12-20T04:59:07;9.00;99.90
4701;DHT22;8724;51.272;6.554;2023-12-20T05:01:35;9.00;99.90
4701;DHT22;8724;51.272;6.554;2023-12-20T05:04:03;9.00;99.90
4701;DHT22;8724;51.272;6.554;2023-12-20T05:06:31;9.00;99.90
4701;DHT22;8724;51.272;6.554;2023-12-20T05:08:59;9.00;99.90
4701;DHT22;8724;51.272;6.554;2023-12-20T05:11:28;9.00;99.90
4701;DHT22;8724;51.272;6.554;2023-12-20T05:13:57;9.00;99.90
4701;DHT22;8724;51.272;6.554;2023-12-20T05:16:25;9.10;99.90
4701;DHT22;8724;51.272;6.554;2023-12-20T05:18:53;9.00;99.90
4701;DHT22;8724;51.272;6.554;2023-12-20T05:21:22;9.00;99.90
4701;DHT22;8724;51.272;6.554;2023-12-20T05:23:50;9.00;99.90
4701;DHT22;8724;51.272;6.554;2023-12-20T05:26:18;9.00;99.90
4701;DHT22;8724;51.272;6.554;2023-12-20T05:28:46;9.00;99.90
4701;DHT22;8724;51.272;6.554;2023-12-20T05:31:16;9.00;99.90
4701;DHT22;8724;51.272;6.554;2023-12-20T05:33:44;9.00;99.90
4701;DHT22;8724;51.272;6.554;2023-12-20T05:36:12;9.00;99.90
4701;DHT22;8724;51.272;6.554;2023-12-20T05:38:41;9.00;99.90
4701;DHT22;8724;51.272;6.554;2023-12-20T05:41:09;9.00;99.90
4701;DHT22;8724;51.272;6.554;2023-12-20T05:43:38;9.00;99.90
4701;DHT22;8724;51.272;6.554;2023-12-20T05:46:06;9.00;99.90
4701;DHT22;8724;51.272;6.554;2023-12-20T05:48:35;9.00;99.90
4701;DHT22;8724;51.272;6.554;2023-12-20T05:51:04;9.00;99.90
4701;DHT22;8724;51.272;6.554;2023-12-20T05:53:32;9.00;99.90
4701;DHT22;8724;51.272;6.554;2023-12-20T05:56:00;9.00;99.90
4701;DHT22;8724;51.272;6.554;2023-12-20T05:58:28;9.00;99.90
4701;DHT22;8724;51.272;6.554;2023-12-20T06:00:56;9.00;99.90
4701;DHT22;8724;51.272;6.554;2023-12-20T06:03:24;9.00;99.90
4701;DHT22;8724;51.272;6.554;2023-12-20T06:05:54;9.00;99.90
4701;DHT22;8724;51.272;6.554;2023-12-20T06:08:39;9.10;99.90
4701;DHT22;8724;51.272;6.554;2023-12-20T06:11:07;9.10;99.90
4701;DHT22;8724;51.272;6.554;2023-12-20T06:13:35;9.10;99.90
4701;DHT22;8724;51.272;6.554;2023-12-20T06:16:05;9.10;99.90
4701;DHT22;8724;51.272;6.554;2023-12-20T06:18:34;9.00;99.90
4701;DHT22;8724;51.272;6.554;2023-12-20T06:21:05;9.00;99.90
4701;DHT22;8724;51.272;6.554;2023-12-20T06:23:34;9.00;99.90
4701;DHT22;8724;51.272;6.554;2023-12-20T06:26:03;9.00;99.90
4701;DHT22;8724;51.272;6.554;2023-12-20T06:28:31;9.00;99.90
4701;DHT22;8724;51.272;6.554;2023-12-20T06:30:59;9.00;99.90
4701;DHT22;8724;51.272;6.554;2023-12-20T06:33:27;9.00;99.90
4701;DHT22;8724;51.272;6.554;2023-12-20T06:35:56;9.00;99.90
4701;DHT22;8724;51.272;6.554;2023-12-20T06:38:25;9.00;99.90
4701;DHT22;8724;51.272;6.554;2023-12-20T06:40:54;9.00;99.90
4701;DHT22;8724;51.272;6.554;2023-12-20T06:43:24;9.00;99.90
4701;DHT22;8724;51.272;6.554;2023-12-20T06:46:12;9.10;99.90
4701;DHT22;8724;51.272;6.554;2023-12-20T06:48:41;9.00;99.90
4701;DHT22;8724;51.272;6.554;2023-12-20T06:51:12;9.00;99.90
4701;DHT22;8724;51.272;6.554;2023-12-20T06:53:41;9.00;99.90
4701;DHT22;8724;51.272;6.554;2023-12-20T06:56:11;9.00;99.90
4701;DHT22;8724;51.272;6.554;2023-12-20T06:58:43;9.00;99.90
4701;DHT22;8724;51.272;6.554;2023-12-20T07:01:12;9.00;99.90
4701;DHT22;8724;51.272;6.554;2023-12-20T07:03:40;9.00;99.90
4701;DHT22;8724;51.272;6.554;2023-12-20T07:06:08;9.00;99.90
4701;DHT22;8724;51.272;6.554;2023-12-20T07:08:36;9.00;99.90
4701;DHT22;8724;51.272;6.554;2023-12-20T07:11:06;9.00;99.90
4701;DHT22;8724;51.272;6.554;2023-12-20T07:13:34;9.00;99.90
4701;DHT22;8724;51.272;6.554;2023-12-20T07:16:03;9.10;99.90
4701;DHT22;8724;51.272;6.554;2023-12-20T07:18:31;9.10;99.90
4701;DHT22;8724;51.272;6.554;2023-12-20T07:20:59;9.00;99.90
4701;DHT22;8724;51.272;6.554;2023-12-20T07:23:27;9.00;99.90
4701;DHT22;8724;51.272;6.554;2023-12-20T07:25:55;9.00;99.90
4701;DHT22;8724;51.272;6.554;2023-12-20T07:28:25;9.00;99.90
4701;DHT22;8724;51.272;6.554;2023-12-20T07:30:53;9.00;99.90
4701;DHT22;8724;51.272;6.554;2023-12-20T07:33:21;9.00;99.90
4701;DHT22;8724;51.272;6.554;2023-12-20T07:35:49;9.00;99.90
4701;DHT22;8724;51.272;6.554;2023-12-20T07:38:18;9.00;99.90
4701;DHT22;8724;51.272;6.554;2023-12-20T07:40:46;9.00;99.90
4701;DHT22;8724;51.272;6.554;2023-12-20T07:43:15;9.00;99.90
4701;DHT22;8724;51.272;6.554;2023-12-20T07:45:44;9.00;99.90
4701;DHT22;8724;51.272;6.554;2023-12-20T07:48:13;9.10;99.90
4701;DHT22;8724;51.272;6.554;2023-12-20T07:50:41;9.00;99.90
4701;DHT22;8724;51.272;6.554;2023-12-20T07:53:09;9.00;99.90
4701;DHT22;8724;51.272;6.554;2023-12-20T07:55:37;9.00;99.90
4701;DHT22;8724;51.272;6.554;2023-12-20T07:58:06;9.00;99.90
4701;DHT22;8724;51.272;6.554;2023-12-20T08:00:35;9.00;99.90
4701;DHT22;8724;51.272;6.554;2023-12-20T08:03:04;9.00;99.90
4701;DHT22;8724;51.272;6.554;2023-12-20T08:05:33;9.00;99.90
4701;DHT22;8724;51.272;6.554;2023-12-20T08:08:01;9.00;99.90
4701;DHT22;8724;51.272;6.554;2023-12-20T08:10:29;9.00;99.90
4701;DHT22;8724;51.272;6.554;2023-12-20T08:12:57;9.00;99.90
4701;DHT22;8724;51.272;6.554;2023-12-20T08:15:26;9.00;99.90
4701;DHT22;8724;51.272;6.554;2023-12-20T08:17:54;9.00;99.90
4701;DHT22;8724;51.272;6.554;2023-12-20T08:20:23;9.00;99.90
4701;DHT22;8724;51.272;6.554;2023-12-20T08:23:05;9.00;99.90
4701;DHT22;8724;51.272;6.554;2023-12-20T08:25:34;9.00;99.90
4701;DHT22;8724;51.272;6.554;2023-12-20T08:28:02;9.00;99.90
4701;DHT22;8724;51.272;6.554;2023-12-20T08:30:31;8.80;99.90
4701;DHT22;8724;51.272;6.554;2023-12-20T08:32:59;8.80;99.90
4701;DHT22;8724;51.272;6.554;2023-12-20T08:35:29;8.90;99.90
4701;DHT22;8724;51.272;6.554;2023-12-20T08:37:57;8.80;99.90
4701;DHT22;8724;51.272;6.554;2023-12-20T08:40:27;8.90;99.90
4701;DHT22;8724;51.272;6.554;2023-12-20T08:42:55;8.90;99.90
4701;DHT22;8724;51.272;6.554;2023-12-20T08:45:23;8.80;99.90
4701;DHT22;8724;51.272;6.554;2023-12-20T08:47:52;8.90;99.90
4701;DHT22;8724;51.272;6.554;2023-12-20T08:50:21;8.90;99.90
4701;DHT22;8724;51.272;6.554;2023-12-20T08:52:51;8.90;99.90
4701;DHT22;8724;51.272;6.554;2023-12-20T08:55:19;8.80;99.90
4701;DHT22;8724;51.272;6.554;2023-12-20T08:57:47;8.90;99.90
4701;DHT22;8724;51.272;6.554;2023-12-20T09:00:16;8.90;99.90
4701;DHT22;8724;51.272;6.554;2023-12-20T09:02:47;8.90;99.90
4701;DHT22;8724;51.272;6.554;2023-12-20T09:05:15;8.90;99.90
4701;DHT22;8724;51.272;6.554;2023-12-20T09:07:43;8.90;99.90
4701;DHT22;8724;51.272;6.554;2023-12-20T09:10:13;8.90;99.90
4701;DHT22;8724;51.272;6.554;2023-12-20T09:12:44;8.90;99.90
4701;DHT22;8724;51.272;6.554;2023-12-20T09:15:14;8.70;99.90
4701;DHT22;8724;51.272;6.554;2023-12-20T09:17:42;8.90;99.90
4701;DHT22;8724;51.272;6.554;2023-12-20T09:20:11;9.00;99.90
4701;DHT22;8724;51.272;6.554;2023-12-20T09:22:40;9.00;99.90
4701;DHT22;8724;51.272;6.554;2023-12-20T09:25:10;8.90;99.90
4701;DHT22;8724;51.272;6.554;2023-12-20T09:27:41;9.00;99.90
4701;DHT22;8724;51.272;6.554;2023-12-20T09:30:09;9.00;99.90
4701;DHT22;8724;51.272;6.554;2023-12-20T09:32:37;9.00;99.90
4701;DHT22;8724;51.272;6.554;2023-12-20T09:35:06;9.00;99.90
4701;DHT22;8724;51.272;6.554;2023-12-20T09:37:35;9.00;99.90
4701;DHT22;8724;51.272;6.554;2023-12-20T09:40:04;9.00;99.90
4701;DHT22;8724;51.272;6.554;2023-12-20T09:42:39;9.00;99.90
4701;DHT22;8724;51.272;6.554;2023-12-20T09:45:15;9.10;99.90
4701;DHT22;8724;51.272;6.554;2023-12-20T09:47:43;9.00;99.90
4701;DHT22;8724;51.272;6.554;2023-12-20T09:50:12;9.10;99.90
4701;DHT22;8724;51.272;6.554;2023-12-20T09:52:42;9.10;99.90
4701;DHT22;8724;51.272;6.554;2023-12-20T09:55:11;9.00;99.90
4701;DHT22;8724;51.272;6.554;2023-12-20T09:57:39;9.10;99.90
4701;DHT22;8724;51.272;6.554;2023-12-20T10:00:09;9.10;99.90
4701;DHT22;8724;51.272;6.554;2023-12-20T10:02:45;9.10;99.90
4701;DHT22;8724;51.272;6.554;2023-12-20T10:05:16;9.10;99.90
4701;DHT22;8724;51.272;6.554;2023-12-20T10:07:46;9.10;99.90
4701;DHT22;8724;51.272;6.554;2023-12-20T10:10:15;9.10;99.90
4701;DHT22;8724;51.272;6.554;2023-12-20T10:13:01;9.10;99.90
4701;DHT22;8724;51.272;6.554;2023-12-20T10:15:30;9.10;99.90
4701;DHT22;8724;51.272;6.554;2023-12-20T10:18:00;9.10;99.90
4701;DHT22;8724;51.272;6.554;2023-12-20T10:20:28;9.10;99.90
4701;DHT22;8724;51.272;6.554;2023-12-20T10:22:58;9.10;99.90
4701;DHT22;8724;51.272;6.554;2023-12-20T10:25:26;9.10;99.90
4701;DHT22;8724;51.272;6.554;2023-12-20T10:28:10;9.10;99.90
4701;DHT22;8724;51.272;6.554;2023-12-20T10:30:39;9.10;99.90
4701;DHT22;8724;51.272;6.554;2023-12-20T10:33:09;9.10;99.90
4701;DHT22;8724;51.272;6.554;2023-12-20T10:35:39;9.10;99.90
4701;DHT22;8724;51.272;6.554;2023-12-20T10:38:12;9.10;99.90
4701;DHT22;8724;51.272;6.554;2023-12-20T10:40:42;9.10;99.90
4701;DHT22;8724;51.272;6.554;2023-12-20T10:43:12;9.10;99.90
4701;DHT22;8724;51.272;6.554;2023-12-20T10:45:42;9.20;99.90
4701;DHT22;8724;51.272;6.554;2023-12-20T10:48:12;9.10;99.90
4701;DHT22;8724;51.272;6.554;2023-12-20T10:50:41;9.10;99.90
4701;DHT22;8724;51.272;6.554;2023-12-20T10:53:09;9.20;99.90
4701;DHT22;8724;51.272;6.554;2023-12-20T10:55:39;9.10;99.90
4701;DHT22;8724;51.272;6.554;2023-12-20T10:58:08;9.20;99.90
4701;DHT22;8724;51.272;6.554;2023-12-20T11:00:40;9.20;99.90
4701;DHT22;8724;51.272;6.554;2023-12-20T11:03:09;9.20;99.90
4701;DHT22;8724;51.272;6.554;2023-12-20T11:05:46;9.10;99.90
4701;DHT22;8724;51.272;6.554;2023-12-20T11:08:22;9.10;99.90
4701;DHT22;8724;51.272;6.554;2023-12-20T11:10:56;9.40;99.90
4701;DHT22;8724;51.272;6.554;2023-12-20T11:13:30;9.20;99.90
4701;DHT22;8724;51.272;6.554;2023-12-20T11:15:59;9.20;99.90
4701;DHT22;8724;51.272;6.554;2023-12-20T11:18:31;9.20;99.90
4701;DHT22;8724;51.272;6.554;2023-12-20T11:21:04;9.20;99.90
4701;DHT22;8724;51.272;6.554;2023-12-20T11:23:33;9.10;99.90
4701;DHT22;8724;51.272;6.554;2023-12-20T11:26:03;9.20;99.90
4701;DHT22;8724;51.272;6.554;2023-12-20T11:28:31;9.10;99.90
4701;DHT22;8724;51.272;6.554;2023-12-20T11:31:01;9.10;99.90
4701;DHT22;8724;51.272;6.554;2023-12-20T11:33:32;9.10;99.90
4701;DHT22;8724;51.272;6.554;2023-12-20T11:36:13;9.10;99.90
4701;DHT22;8724;51.272;6.554;2023-12-20T11:38:54;9.20;99.90
4701;DHT22;8724;51.272;6.554;2023-12-20T11:41:23;9.20;99.90
4701;DHT22;8724;51.272;6.554;2023-12-20T11:43:53;9.10;99.90
4701;DHT22;8724;51.272;6.554;2023-12-20T11:46:22;9.20;99.90
4701;DHT22;8724;51.272;6.554;2023-12-20T11:48:51;9.20;99.90
4701;DHT22;8724;51.272;6.554;2023-12-20T11:51:21;9.20;99.90
4701;DHT22;8724;51.272;6.554;2023-12-20T11:53:51;9.20;99.90
4701;DHT22;8724;51.272;6.554;2023-12-20T11:56:20;9.20;99.90
4701;DHT22;8724;51.272;6.554;2023-12-20T11:58:48;9.20;99.90
4701;DHT22;8724;51.272;6.554;2023-12-20T12:01:19;9.20;99.90
4701;DHT22;8724;51.272;6.554;2023-12-20T12:03:48;9.20;99.90
4701;DHT22;8724;51.272;6.554;2023-12-20T12:06:16;9.20;99.90
4701;DHT22;8724;51.272;6.554;2023-12-20T12:08:46;9.30;99.90
4701;DHT22;8724;51.272;6.554;2023-12-20T12:11:14;9.30;99.90
4701;DHT22;8724;51.272;6.554;2023-12-20T12:13:42;9.30;99.90
4701;DHT22;8724;51.272;6.554;2023-12-20T12:16:10;9.30;99.90
4701;DHT22;8724;51.272;6.554;2023-12-20T12:18:38;9.30;99.90
4701;DHT22;8724;51.272;6.554;2023-12-20T12:21:08;9.30;99.90
4701;DHT22;8724;51.272;6.554;2023-12-20T12:23:46;9.20;99.90
4701;DHT22;8724;51.272;6.554;2023-12-20T12:26:14;9.20;99.90
4701;DHT22;8724;51.272;6.554;2023-12-20T12:28:43;9.20;99.90
4701;DHT22;8724;51.272;6.554;2023-12-20T12:31:14;9.30;99.90
4701;DHT22;8724;51.272;6.554;2023-12-20T12:33:44;9.20;99.90
4701;DHT22;8724;51.272;6.554;2023-12-20T12:36:12;9.20;99.90
4701;DHT22;8724;51.272;6.554;2023-12-20T12:38:42;9.20;99.90
4701;DHT22;8724;51.272;6.554;2023-12-20T12:41:14;9.30;99.90
4701;DHT22;8724;51.272;6.554;2023-12-20T12:43:43;9.30;99.90
4701;DHT22;8724;51.272;6.554;2023-12-20T12:46:11;9.30;99.90
4701;DHT22;8724;51.272;6.554;2023-12-20T12:48:39;9.30;99.90
4701;DHT22;8724;51.272;6.554;2023-12-20T12:51:10;9.30;99.90
4701;DHT22;8724;51.272;6.554;2023-12-20T12:53:40;9.30;99.90
4701;DHT22;8724;51.272;6.554;2023-12-20T12:56:08;9.30;99.90
4701;DHT22;8724;51.272;6.554;2023-12-20T12:58:38;9.40;99.90
4701;DHT22;8724;51.272;6.554;2023-12-20T13:01:06;9.30;99.90
4701;DHT22;8724;51.272;6.554;2023-12-20T13:03:35;9.30;99.90
4701;DHT22;8724;51.272;6.554;2023-12-20T13:06:04;9.30;99.90
4701;DHT22;8724;51.272;6.554;2023-12-20T13:08:32;9.30;99.90
4701;DHT22;8724;51.272;6.554;2023-12-20T13:11:01;9.30;99.90
4701;DHT22;8724;51.272;6.554;2023-12-20T13:13:31;9.30;99.90
4701;DHT22;8724;51.272;6.554;2023-12-20T13:16:00;9.30;99.90
4701;DHT22;8724;51.272;6.554;2023-12-20T13:18:28;9.30;99.90
4701;DHT22;8724;51.272;6.554;2023-12-20T13:20:57;9.40;99.90
4701;DHT22;8724;51.272;6.554;2023-12-20T13:23:25;9.30;99.90
4701;DHT22;8724;51.272;6.554;2023-12-20T13:25:53;9.30;99.90
4701;DHT22;8724;51.272;6.554;2023-12-20T13:28:21;9.40;99.90
4701;DHT22;8724;51.272;6.554;2023-12-20T13:30:49;9.30;99.90
4701;DHT22;8724;51.272;6.554;2023-12-20T13:33:19;9.30;99.90
4701;DHT22;8724;51.272;6.554;2023-12-20T13:35:48;9.30;99.90
4701;DHT22;8724;51.272;6.554;2023-12-20T13:38:16;9.30;99.90
4701;DHT22;8724;51.272;6.554;2023-12-20T13:40:44;9.30;99.90
4701;DHT22;8724;51.272;6.554;2023-12-20T13:43:12;9.40;99.90
4701;DHT22;8724;51.272;6.554;2023-12-20T13:45:41;9.40;99.90
4701;DHT22;8724;51.272;6.554;2023-12-20T13:48:09;9.30;99.90
4701;DHT22;8724;51.272;6.554;2023-12-20T13:50:38;9.40;99.90
4701;DHT22;8724;51.272;6.554;2023-12-20T13:53:06;9.30;99.90
4701;DHT22;8724;51.272;6.554;2023-12-20T13:55:34;9.40;99.90
4701;DHT22;8724;51.272;6.554;2023-12-20T13:58:03;9.30;99.90
4701;DHT22;8724;51.272;6.554;2023-12-20T14:00:31;9.30;99.90
4701;DHT22;8724;51.272;6.554;2023-12-20T14:02:59;9.30;99.90
4701;DHT22;8724;51.272;6.554;2023-12-20T14:05:28;9.30;99.90
4701;DHT22;8724;51.272;6.554;2023-12-20T14:07:58;9.30;99.90
4701;DHT22;8724;51.272;6.554;2023-12-20T14:10:27;9.40;99.90
4701;DHT22;8724;51.272;6.554;2023-12-20T14:12:56;9.40;99.90
4701;DHT22;8724;51.272;6.554;2023-12-20T14:15:24;9.40;99.90
4701;DHT22;8724;51.272;6.554;2023-12-20T14:17:53;9.30;99.90
4701;DHT22;8724;51.272;6.554;2023-12-20T14:20:21;9.30;99.90
4701;DHT22;8724;51.272;6.554;2023-12-20T14:22:49;9.30;99.90
4701;DHT22;8724;51.272;6.554;2023-12-20T14:25:19;9.40;99.90
4701;DHT22;8724;51.272;6.554;2023-12-20T14:27:47;9.30;99.90
4701;DHT22;8724;51.272;6.554;2023-12-20T14:30:15;9.40;99.90
4701;DHT22;8724;51.272;6.554;2023-12-20T14:32:44;9.30;99.90
4701;DHT22;8724;51.272;6.554;2023-12-20T14:35:12;9.40;99.90
4701;DHT22;8724;51.272;6.554;2023-12-20T14:37:40;9.40;99.90
4701;DHT22;8724;51.272;6.554;2023-12-20T14:40:10;9.40;99.90
4701;DHT22;8724;51.272;6.554;2023-12-20T14:42:44;9.40;99.90
4701;DHT22;8724;51.272;6.554;2023-12-20T14:45:13;9.40;99.90
4701;DHT22;8724;51.272;6.554;2023-12-20T14:47:43;9.40;99.90
4701;DHT22;8724;51.272;6.554;2023-12-20T14:50:12;9.40;99.90
4701;DHT22;8724;51.272;6.554;2023-12-20T14:52:45;9.40;99.90
4701;DHT22;8724;51.272;6.554;2023-12-20T14:55:14;9.40;99.90
4701;DHT22;8724;51.272;6.554;2023-12-20T14:57:44;9.40;99.90
4701;DHT22;8724;51.272;6.554;2023-12-20T15:00:12;9.40;99.90
4701;DHT22;8724;51.272;6.554;2023-12-20T15:02:43;9.40;99.90
4701;DHT22;8724;51.272;6.554;2023-12-20T15:05:11;9.40;99.90
4701;DHT22;8724;51.272;6.554;2023-12-20T15:07:41;9.50;99.90
4701;DHT22;8724;51.272;6.554;2023-12-20T15:10:09;9.40;99.90
4701;DHT22;8724;51.272;6.554;2023-12-20T15:12:37;9.50;99.90
4701;DHT22;8724;51.272;6.554;2023-12-20T15:15:08;9.50;99.90
4701;DHT22;8724;51.272;6.554;2023-12-20T15:17:36;9.50;99.90
4701;DHT22;8724;51.272;6.554;2023-12-20T15:20:05;9.50;99.90
4701;DHT22;8724;51.272;6.554;2023-12-20T15:22:34;9.50;99.90
4701;DHT22;8724;51.272;6.554;2023-12-20T15:25:04;9.50;99.90
4701;DHT22;8724;51.272;6.554;2023-12-20T15:27:35;9.50;99.90
4701;DHT22;8724;51.272;6.554;2023-12-20T15:30:07;9.50;99.90
4701;DHT22;8724;51.272;6.554;2023-12-20T15:32:37;9.50;99.90
4701;DHT22;8724;51.272;6.554;2023-12-20T15:35:07;9.50;99.90
4701;DHT22;8724;51.272;6.554;2023-12-20T15:37:38;9.50;99.90
4701;DHT22;8724;51.272;6.554;2023-12-20T15:40:08;9.50;99.90
4701;DHT22;8724;51.272;6.554;2023-12-20T15:42:38;9.50;99.90
4701;DHT22;8724;51.272;6.554;2023-12-20T15:45:08;9.50;99.90
4701;DHT22;8724;51.272;6.554;2023-12-20T15:47:37;9.50;99.90
4701;DHT22;8724;51.272;6.554;2023-12-20T15:50:06;9.50;99.90
4701;DHT22;8724;51.272;6.554;2023-12-20T15:52:35;9.50;99.90
4701;DHT22;8724;51.272;6.554;2023-12-20T15:55:05;9.50;99.90
4701;DHT22;8724;51.272;6.554;2023-12-20T15:57:34;9.50;99.90
4701;DHT22;8724;51.272;6.554;2023-12-20T16:00:19;9.50;99.90
4701;DHT22;8724;51.272;6.554;2023-12-20T16:02:48;9.50;99.90
4701;DHT22;8724;51.272;6.554;2023-12-20T16:05:16;9.50;99.90
4701;DHT22;8724;51.272;6.554;2023-12-20T16:07:44;9.50;99.90
4701;DHT22;8724;51.272;6.554;2023-12-20T16:10:13;9.90;99.90
4701;DHT22;8724;51.272;6.554;2023-12-20T16:12:41;9.50;99.90
4701;DHT22;8724;51.272;6.554;2023-12-20T16:15:10;9.50;99.90
4701;DHT22;8724;51.272;6.554;2023-12-20T16:17:39;9.50;99.90
4701;DHT22;8724;51.272;6.554;2023-12-20T16:20:08;9.50;99.90
4701;DHT22;8724;51.272;6.554;2023-12-20T16:22:36;9.50;99.90
4701;DHT22;8724;51.272;6.554;2023-12-20T16:25:05;9.60;99.90
4701;DHT22;8724;51.272;6.554;2023-12-20T16:27:33;9.50;99.90
4701;DHT22;8724;51.272;6.554;2023-12-20T16:30:02;9.50;99.90